createdAt,value
2018-09-03T00:01:14.648Z,15.25
2018-09-03T00:03:42.947Z,16.00
2018-09-03T00:06:11.258Z,15.00
2018-09-03T00:08:41.111Z,17.00
2018-09-03T00:11:09.443Z,17.00
2018-09-03T00:13:37.815Z,15.00
2018-09-03T00:16:06.130Z,15.00
2018-09-03T00:18:34.442Z,14.50
2018-09-03T00:21:02.735Z,15.75
2018-09-03T00:23:31.017Z,17.50
2018-09-03T00:25:59.323Z,16.50
2018-09-03T00:28:27.621Z,16.50
2018-09-03T00:31:00.062Z,15.00
2018-09-03T00:33:33.543Z,16.50
2018-09-03T00:36:07.118Z,15.25
2018-09-03T00:38:40.788Z,14.75
2018-09-03T00:41:14.254Z,15.50
2018-09-03T00:43:48.255Z,15.00
2018-09-03T00:46:21.690Z,15.75
2018-09-03T00:48:49.984Z,17.50
2018-09-03T00:51:18.450Z,18.00
2018-09-03T00:53:46.742Z,17.50
2018-09-03T00:56:15.125Z,17.50
2018-09-03T00:58:43.399Z,16.00
2018-09-03T01:01:11.660Z,15.00
2018-09-03T01:03:39.955Z,18.00
2018-09-03T01:06:08.193Z,17.25
2018-09-03T01:08:37.476Z,15.75
2018-09-03T01:11:06.770Z,16.75
2018-09-03T01:13:35.036Z,18.25
2018-09-03T01:16:03.350Z,16.00
2018-09-03T01:18:35.753Z,17.75
2018-09-03T01:21:04.074Z,18.25
2018-09-03T01:23:32.359Z,18.00
2018-09-03T01:26:00.880Z,21.50
2018-09-03T01:28:29.192Z,16.00
2018-09-03T01:30:57.642Z,15.25
2018-09-03T01:33:25.934Z,16.00
2018-09-03T01:35:54.629Z,18.50
2018-09-03T01:38:23.010Z,21.50
2018-09-03T01:40:51.307Z,18.50
2018-09-03T01:43:19.588Z,21.00
2018-09-03T01:45:47.873Z,18.50
2018-09-03T01:48:16.165Z,20.00
2018-09-03T01:50:44.499Z,19.00
2018-09-03T01:53:12.822Z,21.25
2018-09-03T01:55:41.151Z,19.00
2018-09-03T01:58:10.264Z,19.25
2018-09-03T02:00:38.570Z,19.00
2018-09-03T02:03:06.871Z,18.50
2018-09-03T02:05:36.056Z,18.25
2018-09-03T02:08:04.417Z,20.25
2018-09-03T02:10:32.700Z,21.50
2018-09-03T02:13:01.026Z,19.00
2018-09-03T02:15:29.299Z,20.25
2018-09-03T02:17:57.622Z,18.50
2018-09-03T02:20:29.279Z,19.00
2018-09-03T02:22:57.582Z,20.25
2018-09-03T02:25:25.895Z,22.00
2018-09-03T02:27:54.227Z,20.75
2018-09-03T02:30:22.566Z,20.75
2018-09-03T02:32:50.838Z,19.00
2018-09-03T02:35:19.168Z,21.25
2018-09-03T02:37:47.454Z,21.75
2018-09-03T02:40:15.760Z,19.00
2018-09-03T02:42:44.066Z,19.00
2018-09-03T02:45:12.339Z,20.75
2018-09-03T02:47:40.659Z,19.75
2018-09-03T02:50:09.027Z,23.00
2018-09-03T02:52:37.680Z,23.50
2018-09-03T02:55:06.343Z,19.00
2018-09-03T02:57:34.630Z,21.50
2018-09-03T03:00:03.032Z,21.75
2018-09-03T03:02:31.330Z,22.50
2018-09-03T03:04:59.663Z,19.25
2018-09-03T03:07:27.958Z,21.75
2018-09-03T03:09:56.263Z,19.50
2018-09-03T03:12:25.736Z,19.50
2018-09-03T03:14:58.034Z,20.25
2018-09-03T03:17:26.431Z,20.50
2018-09-03T03:19:54.738Z,20.00
2018-09-03T03:22:23.034Z,20.50
2018-09-03T03:24:51.314Z,21.50
2018-09-03T03:27:19.591Z,24.50
2018-09-03T03:29:47.925Z,20.75
2018-09-03T03:32:16.190Z,19.50
2018-09-03T03:34:44.511Z,18.00
2018-09-03T03:37:12.839Z,21.50
2018-09-03T03:39:41.134Z,19.75
2018-09-03T03:42:09.476Z,21.25
2018-09-03T03:44:37.752Z,23.25
2018-09-03T03:47:06.108Z,19.25
2018-09-03T03:49:34.448Z,19.00
2018-09-03T03:52:02.810Z,20.00
2018-09-03T03:54:31.083Z,19.25
2018-09-03T03:56:59.464Z,18.75
2018-09-03T03:59:27.753Z,22.50
2018-09-03T04:01:56.047Z,19.50
2018-09-03T04:04:24.342Z,24.50
2018-09-03T04:06:52.670Z,20.00
2018-09-03T04:09:20.955Z,19.25
2018-09-03T04:11:49.244Z,20.25
2018-09-03T04:14:17.534Z,21.75
2018-09-03T04:16:45.846Z,21.25
2018-09-03T04:19:14.133Z,22.50
2018-09-03T04:21:42.396Z,20.50
2018-09-03T04:24:10.721Z,23.50
2018-09-03T04:26:38.992Z,21.50
2018-09-03T04:29:07.306Z,20.50
2018-09-03T04:31:35.600Z,25.75
2018-09-03T04:34:03.930Z,21.25
2018-09-03T04:36:32.236Z,18.25
2018-09-03T04:39:00.513Z,20.75
2018-09-03T04:41:28.847Z,20.50
2018-09-03T04:43:57.144Z,20.75
2018-09-03T04:46:25.446Z,23.25
2018-09-03T04:48:53.728Z,22.75
2018-09-03T04:51:21.989Z,21.25
2018-09-03T04:53:50.340Z,23.00
2018-09-03T04:56:18.640Z,23.25
2018-09-03T04:58:46.922Z,23.75
2018-09-03T05:01:15.209Z,23.00
2018-09-03T05:03:43.559Z,18.75
2018-09-03T05:06:11.942Z,21.50
2018-09-03T05:08:40.292Z,19.00
2018-09-03T05:11:08.650Z,22.00
2018-09-03T05:13:36.983Z,22.50
2018-09-03T05:16:05.394Z,23.25
2018-09-03T05:18:33.762Z,22.50
2018-09-03T05:21:02.013Z,21.50
2018-09-03T05:23:30.287Z,23.25
2018-09-03T05:25:58.677Z,23.75
2018-09-03T05:28:26.962Z,22.00
2018-09-03T05:30:55.271Z,22.25
2018-09-03T05:33:23.564Z,22.00
2018-09-03T05:35:51.863Z,22.00
2018-09-03T05:38:20.326Z,23.50
2018-09-03T05:40:49.672Z,25.50
2018-09-03T05:43:18.041Z,22.00
2018-09-03T05:45:46.318Z,23.25
2018-09-03T05:48:14.618Z,23.25
2018-09-03T05:50:42.907Z,18.75
2018-09-03T05:53:11.153Z,22.50
2018-09-03T05:55:39.434Z,21.25
2018-09-03T05:58:07.776Z,23.00
2018-09-03T06:00:37.090Z,23.00
2018-09-03T06:03:05.466Z,25.25
2018-09-03T06:05:33.716Z,22.50
2018-09-03T06:08:01.994Z,24.75
2018-09-03T06:10:30.353Z,22.75
2018-09-03T06:13:01.801Z,21.50
2018-09-03T06:15:30.047Z,24.00
2018-09-03T06:17:58.365Z,23.00
2018-09-03T06:20:26.649Z,22.00
2018-09-03T06:22:54.939Z,19.25
2018-09-03T06:25:23.230Z,23.00
2018-09-03T06:27:51.470Z,23.50
2018-09-03T06:30:19.804Z,22.50
2018-09-03T06:32:48.131Z,22.75
2018-09-03T06:35:16.373Z,24.00
2018-09-03T06:37:44.686Z,22.25
2018-09-03T06:40:12.986Z,22.50
2018-09-03T06:42:41.387Z,27.25
2018-09-03T06:45:09.670Z,24.50
2018-09-03T06:47:38.082Z,20.00
2018-09-03T06:50:06.396Z,22.75
2018-09-03T06:52:34.717Z,23.75
2018-09-03T06:55:02.963Z,24.25
2018-09-03T06:57:31.249Z,21.75
2018-09-03T06:59:59.578Z,22.50
2018-09-03T07:02:27.886Z,24.75
2018-09-03T07:04:56.189Z,20.75
2018-09-03T07:07:24.494Z,21.50
2018-09-03T07:09:52.820Z,24.00
2018-09-03T07:12:21.122Z,23.75
2018-09-03T07:14:49.358Z,22.25
2018-09-03T07:17:17.688Z,24.00
2018-09-03T07:19:45.999Z,23.75
2018-09-03T07:22:14.302Z,22.75
2018-09-03T07:24:42.571Z,26.50
2018-09-03T07:27:10.874Z,23.75
2018-09-03T07:29:39.172Z,23.25
2018-09-03T07:32:07.531Z,23.00
2018-09-03T07:34:36.995Z,23.00
2018-09-03T07:37:05.330Z,24.00
2018-09-03T07:39:33.625Z,22.50
2018-09-03T07:42:01.944Z,20.75
2018-09-03T07:44:30.230Z,21.50
2018-09-03T07:46:58.552Z,22.25
2018-09-03T07:49:26.854Z,21.25
2018-09-03T07:51:55.136Z,22.75
2018-09-03T07:54:23.407Z,24.75
2018-09-03T07:56:51.695Z,21.00
2018-09-03T07:59:20.004Z,20.25
2018-09-03T08:01:48.294Z,24.25
2018-09-03T08:04:17.102Z,23.25
2018-09-03T08:06:47.140Z,21.25
2018-09-03T08:09:15.431Z,21.75
2018-09-03T08:11:43.705Z,22.75
2018-09-03T08:14:12.009Z,21.00
2018-09-03T08:16:40.340Z,19.25
2018-09-03T08:19:08.636Z,19.00
2018-09-03T08:21:36.931Z,20.50
2018-09-03T08:24:05.205Z,22.00
2018-09-03T08:26:33.534Z,20.50
2018-09-03T08:29:02.600Z,17.50
2018-09-03T08:31:30.933Z,23.50
2018-09-03T08:33:59.195Z,19.00
2018-09-03T08:36:27.479Z,20.25
2018-09-03T08:38:55.829Z,22.25
2018-09-03T08:41:24.085Z,23.00
2018-09-03T08:43:52.362Z,20.75
2018-09-03T08:46:20.659Z,21.25
2018-09-03T08:48:48.970Z,22.00
2018-09-03T08:51:17.283Z,22.00
2018-09-03T08:53:45.605Z,18.50
2018-09-03T08:56:13.918Z,19.75
2018-09-03T08:58:42.219Z,22.75
2018-09-03T09:01:11.309Z,22.75
2018-09-03T09:03:41.244Z,20.25
2018-09-03T09:06:09.814Z,19.00
2018-09-03T09:08:38.107Z,22.00
2018-09-03T09:11:07.355Z,22.00
2018-09-03T09:13:35.693Z,20.00
2018-09-03T09:16:04.020Z,21.75
2018-09-03T09:18:32.354Z,22.00
2018-09-03T09:21:00.639Z,23.25
2018-09-03T09:23:28.870Z,22.25
2018-09-03T09:25:57.158Z,20.25
2018-09-03T09:28:25.467Z,17.50
2018-09-03T09:30:53.785Z,19.00
2018-09-03T09:33:22.873Z,21.25
2018-09-03T09:35:51.266Z,19.00
2018-09-03T09:38:19.502Z,20.00
2018-09-03T09:40:47.834Z,19.00
2018-09-03T09:43:16.128Z,19.00
2018-09-03T09:45:44.499Z,19.25
2018-09-03T09:48:12.684Z,21.50
2018-09-03T09:50:40.977Z,22.00
2018-09-03T09:53:09.273Z,17.50
2018-09-03T09:55:37.644Z,18.25
2018-09-03T09:58:05.935Z,20.75
2018-09-03T10:00:39.601Z,18.75
2018-09-03T10:03:07.946Z,17.75
2018-09-03T10:05:36.292Z,19.00
2018-09-03T10:08:04.611Z,18.75
2018-09-03T10:10:32.903Z,19.00
2018-09-03T10:13:01.242Z,18.25
2018-09-03T10:15:29.546Z,18.25
2018-09-03T10:17:57.839Z,19.00
2018-09-03T10:20:26.177Z,18.75
2018-09-03T10:22:54.464Z,19.75
2018-09-03T10:25:29.275Z,18.50
2018-09-03T10:27:57.532Z,19.00
2018-09-03T10:30:25.785Z,16.00
2018-09-03T10:32:54.080Z,16.25
2018-09-03T10:35:22.376Z,16.25
2018-09-03T10:37:55.622Z,14.75
2018-09-03T10:40:24.295Z,12.75
2018-09-03T10:42:52.606Z,14.75
2018-09-03T10:45:20.878Z,14.75
2018-09-03T10:47:49.173Z,14.75
2018-09-03T10:50:17.520Z,13.50
2018-09-03T10:52:45.815Z,16.00
2018-09-03T10:55:14.052Z,14.25
2018-09-03T10:57:42.408Z,16.75
2018-09-03T11:00:12.016Z,14.25
2018-09-03T11:02:40.322Z,15.00
2018-09-03T11:05:08.632Z,11.75
2018-09-03T11:07:37.814Z,13.50
2018-09-03T11:10:06.143Z,15.00
2018-09-03T11:12:34.471Z,13.00
2018-09-03T11:15:03.671Z,12.75
2018-09-03T11:17:32.743Z,15.75
2018-09-03T11:20:02.777Z,14.00
2018-09-03T11:22:31.195Z,11.50
2018-09-03T11:25:01.286Z,13.00
2018-09-03T11:27:29.659Z,14.00
2018-09-03T11:29:58.143Z,13.75
2018-09-03T11:32:26.560Z,12.75
2018-09-03T11:34:54.962Z,14.00
2018-09-03T11:37:23.803Z,13.00
2018-09-03T11:39:52.148Z,17.00
2018-09-03T11:42:20.809Z,14.00
2018-09-03T11:44:49.212Z,14.50
2018-09-03T11:47:17.501Z,15.50
2018-09-03T11:49:47.838Z,16.25
2018-09-03T11:52:18.242Z,13.75
2018-09-03T11:54:46.584Z,15.00
2018-09-03T11:57:15.036Z,13.75
2018-09-03T11:59:43.326Z,14.00
2018-09-03T12:02:20.732Z,14.50
2018-09-03T12:04:49.230Z,14.25
2018-09-03T12:07:17.831Z,16.25
2018-09-03T12:09:46.108Z,15.25
2018-09-03T12:12:14.410Z,13.50
2018-09-03T12:14:44.528Z,13.00
2018-09-03T12:17:12.825Z,14.00
2018-09-03T12:19:41.150Z,17.00
2018-09-03T12:22:09.483Z,14.50
2018-09-03T12:24:37.759Z,15.25
2018-09-03T12:27:06.102Z,14.25
2018-09-03T12:29:34.661Z,16.00
2018-09-03T12:32:03.183Z,16.50
2018-09-03T12:34:31.496Z,17.50
2018-09-03T12:36:59.863Z,14.75
2018-09-03T12:39:28.139Z,17.00
2018-09-03T12:41:56.425Z,17.00
2018-09-03T12:44:25.651Z,17.25
2018-09-03T12:46:53.969Z,15.50
2018-09-03T12:49:22.296Z,17.50
2018-09-03T12:51:50.643Z,17.00
2018-09-03T12:54:19.243Z,18.25
2018-09-03T12:56:48.544Z,15.75
2018-09-03T12:59:17.157Z,14.50
2018-09-03T13:01:45.433Z,15.00
2018-09-03T13:04:13.915Z,16.75
2018-09-03T13:06:42.237Z,15.50
2018-09-03T13:09:10.686Z,19.50
2018-09-03T13:11:39.231Z,17.75
2018-09-03T13:14:07.606Z,15.75
2018-09-03T13:16:35.923Z,18.50
2018-09-03T13:19:04.297Z,16.50
2018-09-03T13:21:32.601Z,18.00
2018-09-03T13:24:01.668Z,17.50
2018-09-03T13:26:29.979Z,18.25
2018-09-03T13:28:58.301Z,18.25
2018-09-03T13:31:26.766Z,17.00
2018-09-03T13:33:55.110Z,17.00
2018-09-03T13:36:23.638Z,18.00
2018-09-03T13:38:51.947Z,18.00
2018-09-03T13:41:21.147Z,20.50
2018-09-03T13:43:50.262Z,19.25
2018-09-03T13:46:18.583Z,19.00
2018-09-03T13:48:47.593Z,18.00
2018-09-03T13:51:15.930Z,20.00
2018-09-03T13:53:44.563Z,18.75
2018-09-03T13:56:12.885Z,18.75
2018-09-03T13:58:41.211Z,16.00
2018-09-03T14:01:09.637Z,20.00
2018-09-03T14:03:38.000Z,20.50
2018-09-03T14:06:06.780Z,19.25
2018-09-03T14:08:36.278Z,16.00
2018-09-03T14:11:05.293Z,21.75
2018-09-03T14:13:33.572Z,17.75
2018-09-03T14:16:01.870Z,20.50
2018-09-03T14:18:30.205Z,20.50
2018-09-03T14:20:58.502Z,20.25
2018-09-03T14:23:26.935Z,20.75
2018-09-03T14:25:55.201Z,21.00
2018-09-03T14:28:23.548Z,20.75
2018-09-03T14:30:51.866Z,18.00
2018-09-03T14:33:20.183Z,20.75
2018-09-03T14:35:48.549Z,18.00
2018-09-03T14:38:16.901Z,20.00
2018-09-03T14:40:45.424Z,24.00
2018-09-03T14:43:13.705Z,20.25
2018-09-03T14:45:42.082Z,21.75
2018-09-03T14:48:10.373Z,25.50
2018-09-03T14:50:38.784Z,23.75
2018-09-03T14:53:07.171Z,22.00
2018-09-03T14:55:36.365Z,21.75
2018-09-03T14:58:04.717Z,23.75
2018-09-03T15:00:33.166Z,23.75
2018-09-03T15:03:01.447Z,21.75
2018-09-03T15:05:30.638Z,23.75
2018-09-03T15:08:00.035Z,22.00
2018-09-03T15:10:28.348Z,24.00
2018-09-03T15:12:57.211Z,23.75
2018-09-03T15:15:25.580Z,22.75
2018-09-03T15:17:53.858Z,25.75
2018-09-03T15:20:23.192Z,25.50
2018-09-03T15:22:51.459Z,26.00
2018-09-03T15:25:19.775Z,23.75
2018-09-03T15:27:48.055Z,24.25
2018-09-03T15:30:16.374Z,25.50
2018-09-03T15:32:45.547Z,24.25
2018-09-03T15:35:13.848Z,25.00
2018-09-03T15:37:42.197Z,26.00
2018-09-03T15:40:10.715Z,24.25
2018-09-03T15:42:39.035Z,24.75
2018-09-03T15:45:07.359Z,25.50
2018-09-03T15:47:36.416Z,27.75
2018-09-03T15:50:04.728Z,26.50
2018-09-03T15:52:33.048Z,28.75
2018-09-03T15:55:01.333Z,26.75
2018-09-03T15:57:29.662Z,26.75
2018-09-03T15:59:57.986Z,25.50
2018-09-03T16:02:27.289Z,27.00
2018-09-03T16:04:55.587Z,24.75
2018-09-03T16:07:23.867Z,27.50
2018-09-03T16:09:52.157Z,26.00
2018-09-03T16:12:20.404Z,28.00
2018-09-03T16:14:48.734Z,27.25
2018-09-03T16:17:17.038Z,29.00
2018-09-03T16:19:45.340Z,28.50
2018-09-03T16:22:13.815Z,25.75
2018-09-03T16:24:42.248Z,25.25
2018-09-03T16:27:10.758Z,24.00
2018-09-03T16:29:41.105Z,24.50
2018-09-03T16:32:13.277Z,26.00
2018-09-03T16:34:41.871Z,24.50
2018-09-03T16:37:12.136Z,25.50
2018-09-03T16:39:55.127Z,24.00
2018-09-03T16:42:25.319Z,27.00
2018-09-03T16:45:00.527Z,24.75
2018-09-03T16:50:35.075Z,26.75
2018-09-03T16:53:03.351Z,27.75
2018-09-03T16:55:31.679Z,25.50
2018-09-03T16:57:59.984Z,24.75
2018-09-03T17:00:28.525Z,26.25
2018-09-03T17:02:56.857Z,27.25
2018-09-03T17:05:25.355Z,24.00
2018-09-03T17:07:54.625Z,24.75
2018-09-03T17:10:23.658Z,23.75
2018-09-03T17:12:53.963Z,23.50
2018-09-03T17:15:22.604Z,22.00
2018-09-03T17:17:51.125Z,21.75
2018-09-03T17:20:19.549Z,21.50
2018-09-03T17:22:47.804Z,21.25
2018-09-03T17:25:16.119Z,20.25
2018-09-03T17:27:44.426Z,22.00
2018-09-03T17:30:12.778Z,20.50
2018-09-03T17:32:41.361Z,20.50
2018-09-03T17:35:09.840Z,22.75
2018-09-03T17:37:38.204Z,22.00
2018-09-03T17:40:06.831Z,20.75
2018-09-03T17:42:38.147Z,21.25
2018-09-03T17:45:07.768Z,21.50
2018-09-03T17:47:36.233Z,21.00
2018-09-03T17:50:04.620Z,22.00
2018-09-03T17:52:32.958Z,22.25
2018-09-03T17:55:01.505Z,20.25
2018-09-03T17:57:31.920Z,20.50
2018-09-03T18:00:00.281Z,21.75
2018-09-03T18:02:28.830Z,20.00
2018-09-03T18:04:58.170Z,23.50
2018-09-03T18:07:26.515Z,20.50
2018-09-03T18:09:54.995Z,23.25
2018-09-03T18:12:23.318Z,20.25
2018-09-03T18:14:51.745Z,22.75
2018-09-03T18:17:20.048Z,20.75
2018-09-03T18:19:48.615Z,25.00
2018-09-03T18:22:16.973Z,23.25
2018-09-03T18:24:45.378Z,20.50
2018-09-03T18:27:15.015Z,22.50
2018-09-03T18:29:43.320Z,23.00
2018-09-03T18:32:11.720Z,21.75
2018-09-03T18:34:40.660Z,21.75
2018-09-03T18:37:09.168Z,22.25
2018-09-03T18:39:37.534Z,20.00
2018-09-03T18:42:07.147Z,18.50
2018-09-03T18:44:36.237Z,22.75
2018-09-03T18:47:04.596Z,23.25
2018-09-03T18:49:32.909Z,25.50
2018-09-03T18:52:05.002Z,22.00
2018-09-03T18:54:33.631Z,22.75
2018-09-03T18:57:01.949Z,21.75
2018-09-03T18:59:30.219Z,25.50
2018-09-03T19:02:00.131Z,24.75
2018-09-03T19:04:28.418Z,23.00
2018-09-03T19:06:56.746Z,24.25
2018-09-03T19:09:25.079Z,21.75
2018-09-03T19:11:53.355Z,23.75
2018-09-03T19:14:21.790Z,25.00
2018-09-03T19:16:50.112Z,23.00
2018-09-03T19:19:19.704Z,22.50
2018-09-03T19:21:48.080Z,25.25
2018-09-03T19:24:16.426Z,24.00
2018-09-03T19:26:44.728Z,22.25
2018-09-03T19:29:13.013Z,26.00
2018-09-03T19:31:42.122Z,25.50
2018-09-03T19:34:10.404Z,22.75
2018-09-03T19:36:39.538Z,23.00
2018-09-03T19:39:07.717Z,26.00
2018-09-03T19:41:37.380Z,22.50
2018-09-03T19:44:05.744Z,22.50
2018-09-03T19:46:34.052Z,23.00
2018-09-03T19:49:02.407Z,26.00
2018-09-03T19:51:30.741Z,23.75
2018-09-03T19:54:00.143Z,22.25
2018-09-03T19:56:28.536Z,25.75
2018-09-03T19:58:57.076Z,25.25
2018-09-03T20:01:25.388Z,23.00
2018-09-03T20:03:53.731Z,23.50
2018-09-03T20:06:23.091Z,26.00
2018-09-03T20:08:51.406Z,22.25
2018-09-03T20:11:19.723Z,24.25
2018-09-03T20:13:48.077Z,22.50
2018-09-03T20:16:16.460Z,25.00
2018-09-03T20:18:44.783Z,22.00
2018-09-03T20:21:13.107Z,22.75
2018-09-03T20:23:41.476Z,26.00
2018-09-03T20:26:09.911Z,22.75
2018-09-03T20:28:38.296Z,25.75
2018-09-03T20:31:06.620Z,22.75
2018-09-03T20:33:34.949Z,22.25
2018-09-03T20:36:03.306Z,24.25
2018-09-03T20:38:33.231Z,23.25
2018-09-03T20:41:01.559Z,24.25
2018-09-03T20:43:29.932Z,23.75
2018-09-03T20:45:58.470Z,22.00
2018-09-03T20:48:26.778Z,22.00
2018-09-03T20:50:55.693Z,23.25
2018-09-03T20:53:24.017Z,22.00
2018-09-03T20:55:53.491Z,21.75
2018-09-03T20:58:21.808Z,19.75
2018-09-03T21:00:50.150Z,23.25
2018-09-03T21:03:18.558Z,23.75
2018-09-03T21:05:46.860Z,22.75
2018-09-03T21:08:16.127Z,23.00
2018-09-03T21:10:44.395Z,20.50
2018-09-03T21:13:12.717Z,21.00
2018-09-03T21:15:41.065Z,23.75
2018-09-03T21:18:09.453Z,25.00
2018-09-03T21:20:37.816Z,24.00
2018-09-03T21:23:06.184Z,20.75
2018-09-03T21:25:34.504Z,20.75
2018-09-03T21:28:02.916Z,23.25
2018-09-03T21:30:35.656Z,22.25
2018-09-03T21:33:04.088Z,24.50
2018-09-03T21:35:33.948Z,23.25
2018-09-03T21:51:51.270Z,22.25
2018-09-03T21:54:19.587Z,21.75
2018-09-03T21:56:47.904Z,24.75
2018-09-03T21:59:16.314Z,24.50
2018-09-03T22:01:46.742Z,21.25
2018-09-03T22:04:15.110Z,23.25
2018-09-03T22:06:43.470Z,23.75
2018-09-03T22:09:11.787Z,24.75
2018-09-03T22:11:40.142Z,22.50
2018-09-03T22:14:11.561Z,25.00
2018-09-03T22:16:39.883Z,24.50
2018-09-03T22:19:08.952Z,26.00
2018-09-03T22:21:37.310Z,23.75
2018-09-03T22:24:05.579Z,24.50
2018-09-03T22:26:33.900Z,27.00
2018-09-03T22:29:02.407Z,27.00
2018-09-03T22:31:30.740Z,29.00
2018-09-03T22:33:59.076Z,27.50
2018-09-03T22:36:31.385Z,26.75
2018-09-03T22:38:59.701Z,27.00
2018-09-03T22:41:28.050Z,26.25
2018-09-03T22:43:56.371Z,26.25
2018-09-03T22:46:24.696Z,25.25
2018-09-03T22:48:53.339Z,26.50
2018-09-03T22:51:21.648Z,27.00
2018-09-03T22:53:50.420Z,27.25
2018-09-03T22:56:18.722Z,27.75
2018-09-03T22:58:47.038Z,27.00
2018-09-03T23:01:15.327Z,24.75
2018-09-03T23:03:43.643Z,28.50
2018-09-03T23:06:11.968Z,23.50
2018-09-03T23:08:40.262Z,28.00
2018-09-03T23:11:08.592Z,25.75
2018-09-03T23:13:37.072Z,24.00
2018-09-03T23:16:05.400Z,26.00
2018-09-03T23:18:33.693Z,26.00
2018-09-03T23:21:02.039Z,27.50
2018-09-03T23:23:30.443Z,26.00
2018-09-03T23:25:58.747Z,25.25
2018-09-03T23:28:27.031Z,26.75
2018-09-03T23:30:56.305Z,27.00
2018-09-03T23:33:24.959Z,29.00
2018-09-03T23:35:53.349Z,26.50
2018-09-03T23:38:21.669Z,27.25
2018-09-03T23:40:49.978Z,25.25
2018-09-03T23:43:18.927Z,26.00
2018-09-03T23:45:47.242Z,27.50
2018-09-03T23:48:15.542Z,27.75
2018-09-03T23:50:43.863Z,27.75
2018-09-03T23:53:12.191Z,29.00
2018-09-03T23:55:40.522Z,27.25
2018-09-03T23:58:11.755Z,27.00
